KCID METAR and TAF | Updated Today

KCID METAR

The Eastern Iowa Airport

Observation time: 4 min. ago

KCID 261452Z 33014KT 10SM CLR 21/12 A3018 RMK AO2 SLP216 T02110117 53014 $

Need help? Read our tutorial on how to read METARs or read the parsed version below.

The Eastern Iowa Airport (KCID) METAR

  • Weather conditions on Sun, 26 Jun 2022 14:52:00 +0000 (4 min. ago):
  • Present conditions: Dry
  • Clouds: Clear skies
  • Visibility: 16093 meters
  • Wind: 330 degrees at 14 knots
  • Temperature: 21 celsius
  • Dew point: 12 celsius
  • Pressure: 30.18 inHg
  • Remarks: AO2 SLP216 T02110117 53014 $


Useful to know...

KCID TAF

The Eastern Iowa Airport

KCID 261132Z 2612/2712 30005KT P6SM SKC FM261400 31012G20KT P6SM SKC FM270300 30005KT P6SM SKC
Observation time: 3:24 hr. ago
Need help? Read our tutorial on how to read TAFs or read the parsed version below.

Parsed version of TAF for The Eastern Iowa Airport (KCID)

  • From 26 June at 12:00 UTC, to day 27 of the month at 12:00 UTC
  • Clouds: No significant changes expected
  • Wind: 300 degrees at 5
  • From day 26 of the month at 14:00 UTC
  • Clouds: No significant changes expected
  • Wind: 310 degrees at 12
  • From day 27 of the month at 03:00 UTC
  • Clouds: No significant changes expected
  • Wind: 300 degrees at 5

Airports near KCID

KIOW Weather
Region: Iowa City

Iowa City Municipal Airport

Not found in our database
KMUT Weather
Region: Muscatine

Muscatine Municipal Airport

Not found in our database